Aviation Digital Data Service (ADDS)

Output produced by METARs form (0017 UTC 26 June 2017)
found at http://aviationweather.gov/adds/metars/
 
KSNS 252353Z 27014KT 10SM CLR 19/12 A2999 RMK AO2 SLP166 T01890122 10200 20161 57009
KMRY 252354Z 28010KT 10SM FEW010 18/12 A3001 RMK AO2 SLP175 T01780122 10183 20139 58010
KSJC 252353Z 30010KT 10SM FEW045 22/14 A2996 RMK AO2 SLP146 CB DSNT NW-N T02220144 10233 20194 58012
KRHV 252147Z 30006KT 10SM SKC 25/14 A3001
KSFO 252356Z 27021KT 10SM FEW035 19/11 A2999 RMK AO2 PK WND 27026/2346 SLP155 T01890111 10200 20172 58009 $
KLVK 252353Z 29015KT 10SM CLR 26/13 A2993 RMK AO2 SLP133 T02560133 10267 20206 58013
KMCE 252353Z AUTO 33008KT 10SM CLR 36/15 A2985 RMK AO2 SLP106 T03610150 10367 20300 58014